Terminal Aerodrome Forecast
Issued by NWS Wilmington, OH

Current Version | Previous Version | Graphics & Text | Print | Product List | Glossary On
Versions: 1 2 3 4 5 6 7 8 9 10 11 12 13
000
FTUS41 KILN 222320
TAFILN
TAF
KILN 222320Z 2300/2324 02010KT P6SM FEW080
     FM230100 03003KT P6SM SKC
     FM231900 01005KT P6SM SCT060=

USA.gov is the U.S. government's official web portal to all federal, state and local government web resources and services.